East Farms, Washington
Current Conditions -  °F | °C
As of 3:53 AM on Monday 24 Nov 2014 (Local Time) from KSFF Reporting Station
Haze Haze  
Wind Chill: 23°   Ceiling: Unl
Heat Index: 28°   Visibility: 6mi
Dew Point: 26°   Wind: 5mph
Humidity: 92%   Direction: 30°NNE
Pressure: 30.27"   Gusts: NA
Location:  47.7153°N, 117.066°W
Report Text: KSFF 241153Z AUTO 03004KT 6SM BR CLR M02/M03 A3027 RMK AO2 SLP265 70001 I1001 I6002 T10221033 10017 21033 51008
Loading
Personal Weather Stations






























Interactive Weather Map New forecast layout! Learn more

10-Day Weather Forecast

Advertisements
Track Severe Weather on mobile